Time;durP1;ratioP1;P1;durP2;ratioP2;P2;SDS_P1;SDS_P2;PMS_P1;PMS_P2;Temp;Humidity;BMP_temperature;BMP_pressure;BME280_temperature;BME280_humidity;BME280_pressure;Samples;Min_cycle;Max_cycle;Signal;HPM_P1;HPM_P2
2021/05/18 00:00:55;;;;;;;1.47;0.80;;;10.00;99.90;;;11.39;100.00;99467.09;5060811;28;20259;-61
2021/05/18 00:14:37;;;;;;;1.00;0.90;;;9.80;99.90;;;11.26;100.00;99469.56;5068348;27;21082;-61
2021/05/18 00:17:48;;;;;;;1.33;1.07;;;9.80;99.90;;;11.26;100.00;99477.59;5045216;28;20788;-59
2021/05/18 00:21:06;;;;;;;1.50;0.60;;;9.80;99.90;;;11.15;100.00;99472.69;5052530;28;20559;-60
2021/05/18 00:24:32;;;;;;;1.93;0.90;;;9.70;99.90;;;11.06;100.00;99474.59;5059450;28;20808;-60
2021/05/18 00:27:56;;;;;;;1.00;0.90;;;9.70;99.90;;;11.00;100.00;99469.16;5058614;28;20487;-61
2021/05/18 00:34:52;;;;;;;1.67;0.97;;;9.60;99.90;;;10.88;100.00;99473.28;5047339;28;20259;-61
2021/05/18 00:38:21;;;;;;;3.70;0.80;;;9.50;99.90;;;10.84;100.00;99475.47;5049758;27;20259;-61
2021/05/18 00:41:47;;;;;;;1.57;1.10;;;9.40;99.90;;;10.87;100.00;99477.78;5039500;28;20394;-61
2021/05/18 00:52:20;;;;;;;1.80;1.13;;;9.30;99.90;;;10.58;100.00;99483.84;5022407;27;100008;-62
2021/05/18 00:59:43;;;;;;;1.57;1.00;;;9.20;99.90;;;10.43;100.00;99481.09;4979732;28;91523;-61
2021/05/18 01:03:01;;;;;;;1.37;1.27;;;9.10;99.90;;;10.43;100.00;99481.09;4977549;28;76638;-62
2021/05/18 01:13:21;;;;;;;1.53;1.00;;;8.90;99.90;;;10.16;100.00;99489.56;5065260;27;61494;-61
2021/05/18 01:24:20;;;;;;;1.70;1.00;;;8.70;99.90;;;9.94;100.00;99499.19;5073855;27;45237;-61
2021/05/18 01:27:43;;;;;;;1.67;0.90;;;8.60;99.90;;;9.90;100.00;99502.38;5080051;27;47786;-62
2021/05/18 01:30:55;;;;;;;1.63;1.10;;;8.60;99.90;;;9.82;100.00;99503.25;5065014;27;44511;-62
2021/05/18 01:34:09;;;;;;;1.07;1.07;;;8.60;99.90;;;9.92;100.00;99495.03;5064253;27;47495;-61
2021/05/18 01:45:15;;;;;;;2.33;1.20;;;8.40;99.90;;;9.66;100.00;99511.31;5062247;27;57513;-61
2021/05/18 01:48:47;;;;;;;1.73;1.37;;;8.40;99.90;;;9.63;100.00;99506.34;5078054;27;58381;-61
2021/05/18 01:52:02;;;;;;;1.60;1.33;;;8.30;99.90;;;9.69;100.00;99519.00;5081467;27;42875;-62
2021/05/18 01:55:29;;;;;;;1.70;1.47;;;8.30;99.90;;;9.60;100.00;99523.53;5059189;27;48108;-61
2021/05/18 01:58:54;;;;;;;3.57;1.50;;;8.30;99.90;;;9.65;100.00;99521.16;5063521;27;47472;-61
2021/05/18 02:02:14;;;;;;;1.77;1.20;;;8.20;99.90;;;9.59;100.00;99527.19;5056191;27;53093;-61
2021/05/18 02:05:35;;;;;;;1.23;0.87;;;8.20;99.90;;;9.64;100.00;99530.16;5045055;27;50113;-61
2021/05/18 02:09:04;;;;;;;1.90;1.33;;;8.20;99.90;;;9.52;100.00;99530.72;5063990;27;53858;-61
2021/05/18 02:12:17;;;;;;;1.83;1.00;;;8.10;99.90;;;9.37;100.00;99533.25;5066253;27;50662;-61
2021/05/18 02:15:48;;;;;;;2.53;1.07;;;8.10;99.90;;;9.33;100.00;99538.09;5067941;27;47270;-61
2021/05/18 02:26:05;;;;;;;1.20;1.10;;;8.00;99.90;;;9.33;100.00;99548.75;5036761;27;41901;-62
2021/05/18 02:29:27;;;;;;;2.03;1.40;;;7.90;99.90;;;9.31;100.00;99555.25;5070664;27;47144;-62
2021/05/18 02:32:39;;;;;;;1.70;1.50;;;7.90;99.90;;;9.38;100.00;99561.63;5074823;27;33630;-60
2021/05/18 02:36:02;;;;;;;2.07;1.50;;;7.90;99.90;;;9.43;100.00;99559.25;5058901;27;41762;-60
2021/05/18 02:39:16;;;;;;;2.93;1.50;;;7.90;99.90;;;9.42;100.00;99570.94;5056737;27;40393;-60
2021/05/18 02:42:28;;;;;;;2.73;1.97;;;7.90;99.90;;;9.43;100.00;99569.94;5074716;27;39206;-60
2021/05/18 02:45:51;;;;;;;1.90;1.70;;;7.90;99.90;;;9.53;100.00;99567.91;5057757;27;41297;-61
2021/05/18 02:52:34;;;;;;;2.70;1.73;;;8.00;99.90;;;9.64;100.00;99572.91;5012368;27;38372;-61
2021/05/18 02:55:55;;;;;;;1.87;1.77;;;8.00;99.90;;;9.62;100.00;99576.78;5051786;27;43279;-61
2021/05/18 02:59:12;;;;;;;3.93;1.60;;;8.10;99.90;;;9.58;100.00;99578.94;5073529;27;39793;-60
2021/05/18 03:02:24;;;;;;;1.90;1.40;;;8.20;99.90;;;9.58;100.00;99580.78;5070058;27;40815;-62
2021/05/18 03:05:36;;;;;;;1.50;1.40;;;8.20;99.90;;;9.65;100.00;99584.44;5074340;27;37900;-61
2021/05/18 03:08:49;;;;;;;7.00;2.40;;;8.30;99.90;;;9.74;100.00;99596.78;5076027;27;39556;-61
2021/05/18 03:12:06;;;;;;;2.43;1.90;;;8.40;99.90;;;9.72;100.00;99588.94;5078424;27;37855;-62
2021/05/18 03:15:17;;;;;;;3.53;1.53;;;8.50;99.90;;;9.65;100.00;99589.78;5053363;28;39131;-61
2021/05/18 03:18:28;;;;;;;1.40;1.30;;;8.60;99.90;;;9.69;100.00;99589.28;5064330;27;42129;-61
2021/05/18 03:21:40;;;;;;;2.33;1.80;;;8.60;99.90;;;9.85;100.00;99600.94;5073642;27;40259;-60
2021/05/18 03:24:52;;;;;;;1.87;1.73;;;8.70;99.90;;;10.05;100.00;99602.22;5076765;27;40408;-62
2021/05/18 03:28:03;;;;;;;5.40;2.50;;;8.80;99.90;;;10.19;100.00;99609.56;5080808;27;32756;-61
2021/05/18 03:37:56;;;;;;;10.83;2.30;;;9.10;99.90;;;10.67;100.00;99607.69;5078910;27;31412;-62
2021/05/18 03:41:12;;;;;;;2.37;2.17;;;9.30;99.90;;;10.74;100.00;99606.00;5083563;27;25234;-62
2021/05/18 03:44:28;;;;;;;3.47;3.00;;;9.40;99.90;;;11.01;100.00;99616.19;5083054;27;23902;-62
2021/05/18 04:19:10;;;;;;;3.50;3.00;;;10.60;99.90;;;11.86;100.00;99646.38;5087804;27;20616;-61
2021/05/18 04:53:31;;;;;;;6.07;5.07;;;11.30;99.90;;;12.66;100.00;99671.66;5088379;27;20326;-60
2021/05/18 05:00:05;;;;;;;6.47;5.90;;;11.50;99.90;;;12.78;100.00;99684.41;5063539;27;20481;-60
2021/05/18 05:07:06;;;;;;;6.73;5.90;;;11.70;99.90;;;13.02;100.00;99693.19;4998723;28;20683;-59
2021/05/18 05:10:24;;;;;;;6.90;6.20;;;11.80;99.90;;;13.09;100.00;99696.78;4995387;28;26048;-61
2021/05/18 05:16:57;;;;;;;7.20;6.00;;;12.10;99.90;;;13.09;100.00;99705.69;5083377;27;26242;-60
2021/05/18 05:20:08;;;;;;;6.13;5.30;;;12.10;99.90;;;13.15;100.00;99706.78;5082909;27;20222;-60
2021/05/18 05:23:19;;;;;;;7.33;6.63;;;12.20;99.90;;;13.15;100.00;99704.94;5083729;27;22852;-61
2021/05/18 05:26:31;;;;;;;7.40;6.63;;;12.20;99.90;;;13.23;100.00;99707.50;5083443;27;20575;-60
2021/05/18 05:29:43;;;;;;;8.43;7.50;;;12.30;99.90;;;13.26;100.00;99701.75;5083003;27;20216;-61
2021/05/18 05:32:54;;;;;;;7.70;6.43;;;12.40;99.90;;;13.34;100.00;99702.69;5078159;27;20236;-61
2021/05/18 05:36:05;;;;;;;6.67;5.97;;;12.40;99.90;;;13.37;100.00;99705.81;5083770;27;20958;-61
2021/05/18 05:42:34;;;;;;;7.83;6.93;;;12.60;99.90;;;13.54;100.00;99706.41;5088753;27;20251;-61
2021/05/18 05:45:46;;;;;;;8.23;7.50;;;12.60;99.90;;;13.54;100.00;99715.31;5087525;27;20676;-61
2021/05/18 05:48:57;;;;;;;8.00;7.30;;;12.70;99.90;;;13.42;100.00;99707.94;5086911;27;20220;-60
2021/05/18 05:55:48;;;;;;;8.67;7.87;;;12.70;99.90;;;13.47;100.00;99716.28;5064175;27;20697;-60
2021/05/18 06:02:34;;;;;;;9.40;8.60;;;12.80;99.90;;;13.61;100.00;99734.19;5088218;27;20605;-61
2021/05/18 06:05:55;;;;;;;9.73;8.73;;;12.80;99.90;;;13.73;100.00;99724.56;5088342;27;20326;-61
2021/05/18 06:09:08;;;;;;;8.67;7.77;;;12.90;99.90;;;13.73;100.00;99734.50;5084505;27;20710;-61
2021/05/18 06:12:44;;;;;;;9.07;8.17;;;13.00;99.90;;;13.72;100.00;99725.63;5087971;27;20506;-62
2021/05/18 06:43:13;;;;;;;8.20;7.50;;;13.20;99.90;;;13.52;100.00;99746.91;5085751;27;20520;-62
2021/05/18 06:46:52;;;;;;;8.20;7.40;;;13.10;99.90;;;13.59;100.00;99766.66;5087802;27;20212;-60
2021/05/18 06:50:28;;;;;;;7.73;7.03;;;13.10;99.90;;;13.68;100.00;99778.09;5082295;27;20339;-61
2021/05/18 06:53:39;;;;;;;7.60;6.70;;;13.00;99.90;;;13.74;100.00;99784.56;5087379;27;20223;-62
2021/05/18 06:56:53;;;;;;;8.53;7.73;;;13.00;99.90;;;13.67;100.00;99784.50;5086958;27;20220;-62
2021/05/18 07:04:09;;;;;;;7.47;6.87;;;13.00;99.90;;;13.67;100.00;99789.88;5052675;27;20230;-61
2021/05/18 07:07:26;;;;;;;10.20;6.93;;;13.00;99.90;;;13.70;100.00;99797.56;5048455;27;20525;-62
2021/05/18 07:10:38;;;;;;;6.90;6.20;;;13.00;99.90;;;13.83;100.00;99796.88;5086736;27;20983;-61
2021/05/18 07:13:49;;;;;;;7.40;6.70;;;13.00;99.90;;;13.97;100.00;99799.50;5087221;27;20339;-60
2021/05/18 07:17:00;;;;;;;7.13;6.53;;;13.10;99.90;;;13.89;100.00;99794.25;5086784;27;20258;-62
2021/05/18 07:20:11;;;;;;;7.73;6.77;;;13.20;99.90;;;14.10;100.00;99801.47;5086427;27;20912;-62
2021/05/18 07:23:29;;;;;;;7.70;6.90;;;13.30;99.90;;;14.34;100.00;99801.06;5087132;27;20797;-61
2021/05/18 07:26:40;;;;;;;7.07;6.47;;;13.50;99.90;;;14.44;100.00;99808.03;5085589;27;20771;-62
2021/05/18 07:29:51;;;;;;;7.70;7.00;;;13.70;99.90;;;14.72;100.00;99798.91;5085932;27;20216;-61
2021/05/18 07:33:27;;;;;;;8.33;6.97;;;14.00;99.90;;;14.97;100.00;99803.84;5081138;27;20709;-62
2021/05/18 07:36:49;;;;;;;6.97;6.27;;;14.40;99.90;;;14.79;100.00;99803.53;5067152;27;20598;-62
2021/05/18 07:40:02;;;;;;;6.77;6.10;;;14.60;99.90;;;14.46;100.00;99819.44;5086621;27;20216;-62
2021/05/18 07:43:17;;;;;;;6.73;6.13;;;14.60;99.90;;;14.10;100.00;99817.63;5086183;27;20328;-62
2021/05/18 07:46:28;;;;;;;9.60;7.70;;;14.50;99.90;;;13.70;100.00;99837.91;5086141;27;20235;-61
2021/05/18 07:49:42;;;;;;;10.80;8.43;;;14.20;99.90;;;13.38;100.00;99844.53;5077131;27;20702;-60
2021/05/18 07:59:37;;;;;;;7.10;6.33;;;12.80;99.90;;;13.23;100.00;99854.44;5080335;27;20742;-60
2021/05/18 08:06:29;;;;;;;6.53;5.93;;;12.30;99.90;;;13.40;100.00;99858.59;5086341;27;20270;-60
2021/05/18 08:09:43;;;;;;;5.90;5.20;;;12.30;99.90;;;13.34;100.00;99858.53;5080903;27;20575;-61
2021/05/18 08:12:55;;;;;;;6.43;5.50;;;12.20;99.90;;;13.57;100.00;99864.63;5085853;27;20682;-61
2021/05/18 10:37:55;;;;;;;2.97;2.08;;;19.90;68.60;;;18.14;100.00;99831.72;5075258;27;20608;-60
2021/05/18 10:41:18;;;;;;;4.95;2.28;;;20.10;64.00;;;19.26;100.00;99828.06;5077468;27;20262;-60
2021/05/18 10:44:30;;;;;;;4.20;2.58;;;20.10;65.50;;;19.11;100.00;99825.72;5083438;27;20321;-60
2021/05/18 10:47:56;;;;;;;4.80;2.47;;;20.60;60.90;;;18.67;100.00;99823.25;5083188;27;20385;-60
2021/05/18 10:55:01;;;;;;;4.30;3.03;;;20.80;55.70;;;17.80;100.00;99819.44;5082281;27;20212;-61
2021/05/18 10:58:41;;;;;;;2.90;2.10;;;20.30;56.80;;;17.57;100.00;99812.63;5083072;27;20808;-60
2021/05/18 11:05:15;;;;;;;4.65;2.30;;;19.50;57.90;;;18.54;100.00;99822.28;5078877;27;20315;-60
2021/05/18 11:12:10;;;;;;;4.07;2.50;;;19.90;57.40;;;19.16;100.00;99819.63;5084319;27;20247;-60
2021/05/18 11:15:46;;;;;;;3.13;2.50;;;20.40;56.10;;;19.17;100.00;99811.25;5087196;27;20716;-60
2021/05/18 11:18:58;;;;;;;5.53;2.50;;;20.80;55.30;;;18.99;100.00;99808.53;5080394;27;20469;-60
2021/05/18 11:23:18;;;;;;;4.20;2.00;;;21.20;54.50;;;18.84;100.00;99803.47;5086659;27;20219;-61
2021/05/18 11:26:03;;;;;;;3.38;2.22;;;21.40;54.00;;;18.34;100.00;99815.34;5069016;27;20234;-61
2021/05/18 11:33:22;;;;;;;6.13;2.53;;;20.90;53.00;;;17.86;100.00;99807.75;5086370;27;20334;-61
2021/05/18 11:36:45;;;;;;;4.22;2.58;;;20.40;54.40;;;18.24;100.00;99802.28;5070349;27;20231;-61
2021/05/18 11:47:45;;;;;;;4.40;2.80;;;20.00;54.80;;;18.96;100.00;99790.84;4954683;28;20233;-61
2021/05/18 11:51:26;;;;;;;5.15;2.42;;;20.40;54.50;;;19.15;100.00;99794.41;5020451;28;20433;-61
2021/05/18 11:54:54;;;;;;;3.50;1.95;;;20.60;54.40;;;19.66;100.00;99796.69;4125974;28;10000914;-61
2021/05/18 11:58:12;;;;;;;4.40;2.55;;;20.80;54.70;;;19.59;100.00;99787.84;4981580;28;20724;-60
2021/05/18 12:09:04;;;;;;;5.00;2.55;;;22.00;48.50;;;18.85;100.00;99802.41;5022118;28;20228;-60
2021/05/18 12:16:25;;;;;;;3.00;2.15;;;21.90;49.30;;;20.20;100.00;99786.75;4962189;28;20219;-61
2021/05/18 12:19:42;;;;;;;4.53;2.63;;;21.90;49.00;;;19.47;100.00;99805.06;5021538;28;20217;-61
2021/05/18 12:23:04;;;;;;;3.40;2.65;;;22.20;48.30;;;18.87;100.00;99792.19;5022829;28;20850;-61
2021/05/18 12:26:36;;;;;;;5.88;2.45;;;22.20;47.70;;;18.64;100.00;99802.84;5024893;28;20529;-62
2021/05/18 12:30:19;;;;;;;2.08;1.88;;;21.70;48.50;;;18.02;100.00;99792.88;5022849;28;20463;-61
2021/05/18 12:33:57;;;;;;;3.33;1.83;;;21.10;48.60;;;17.99;100.00;99809.53;4985005;28;20604;-61
2021/05/18 12:37:15;;;;;;;2.05;1.80;;;20.40;49.90;;;18.02;100.00;99809.94;5023194;28;20736;-61
2021/05/18 12:47:53;;;;;;;3.10;2.10;;;19.30;52.50;;;19.09;100.00;99799.88;5022250;28;20818;-61
2021/05/18 12:51:22;;;;;;;3.50;2.40;;;19.50;53.10;;;19.61;100.00;99791.16;5024300;28;20553;-61
2021/05/18 12:54:35;;;;;;;5.50;2.40;;;20.10;52.80;;;19.47;100.00;99797.75;5022291;28;20705;-61
2021/05/18 13:01:33;;;;;;;2.63;2.03;;;20.90;50.90;;;20.14;100.00;99800.44;5022606;28;20571;-61
2021/05/18 13:04:45;;;;;;;5.10;2.60;;;21.30;50.80;;;19.76;100.00;99792.63;5023201;28;20519;-61
2021/05/18 13:08:13;;;;;;;2.50;2.30;;;21.60;49.10;;;20.26;100.00;99801.28;5022912;28;20264;-62
2021/05/18 13:18:45;;;;;;;3.40;2.25;;;22.50;48.70;;;19.55;100.00;99783.06;5021288;28;20900;-61
2021/05/18 13:22:01;;;;;;;2.45;2.05;;;22.90;46.60;;;19.31;100.00;99787.50;5021540;28;20233;-62
2021/05/18 13:28:36;;;;;;;2.60;1.92;;;22.40;47.20;;;18.97;100.00;99791.66;5023039;28;20346;-61
2021/05/18 13:31:48;;;;;;;4.53;2.50;;;21.90;47.90;;;18.98;100.00;99796.03;5023612;28;20877;-62
2021/05/18 13:35:11;;;;;;;3.17;1.80;;;21.60;49.00;;;18.99;100.00;99797.69;5025007;28;20607;-62
2021/05/18 13:38:35;;;;;;;3.15;1.52;;;21.30;49.30;;;18.75;100.00;99795.84;5021471;28;20544;-61
2021/05/18 13:41:47;;;;;;;4.60;1.88;;;21.10;49.90;;;18.81;100.00;99798.47;5022919;28;20592;-62
2021/05/18 13:44:59;;;;;;;4.07;1.80;;;20.90;50.20;;;18.86;100.00;99800.53;5019471;28;20434;-61
2021/05/18 13:48:34;;;;;;;3.40;1.85;;;20.70;50.60;;;19.05;100.00;99794.06;5020185;28;20271;-62
2021/05/18 13:51:45;;;;;;;1.88;1.50;;;20.60;50.80;;;19.11;100.00;99790.47;4987475;28;20272;-61
2021/05/18 13:54:57;;;;;;;3.50;2.03;;;20.60;51.10;;;19.19;100.00;99803.72;5019764;28;20268;-62
2021/05/18 13:58:14;;;;;;;2.60;1.85;;;20.70;50.70;;;19.07;100.00;99797.38;5023621;28;20226;-62
2021/05/18 14:05:20;;;;;;;4.85;2.83;;;20.80;51.90;;;20.17;100.00;99786.38;4997525;28;20253;-62
2021/05/18 14:08:56;;;;;;;3.00;2.17;;;21.00;52.20;;;20.23;100.00;99783.56;5017232;28;20626;-62
2021/05/18 14:12:36;;;;;;;5.38;3.10;;;21.40;50.60;;;20.02;100.00;99779.50;4944172;28;20240;-62
2021/05/18 14:19:51;;;;;;;4.80;2.53;;;21.90;49.10;;;19.45;100.00;99770.03;5019900;28;20792;-63
2021/05/18 14:23:05;;;;;;;3.70;2.10;;;21.90;49.10;;;19.83;100.00;99775.19;4939206;28;20764;-63
2021/05/18 14:26:25;;;;;;;2.33;1.83;;;21.90;49.10;;;19.46;100.00;99765.44;4994704;28;20232;-63
2021/05/18 14:29:37;;;;;;;5.10;2.13;;;21.70;47.50;;;19.15;100.00;99772.69;5022151;28;20252;-62
2021/05/18 14:32:49;;;;;;;4.20;2.80;;;21.30;47.90;;;18.86;100.00;99763.41;5025646;28;20508;-62
2021/05/18 14:36:19;;;;;;;5.43;2.50;;;21.00;48.80;;;19.30;100.00;99773.13;5026416;28;20238;-62
2021/05/18 14:39:49;;;;;;;3.90;2.20;;;20.70;50.30;;;19.27;100.00;99776.31;5019605;28;20706;-63
2021/05/18 14:43:05;;;;;;;6.25;2.40;;;20.50;51.20;;;18.73;100.00;99773.56;5026327;28;20750;-62
2021/05/18 14:46:58;;;;;;;3.88;1.88;;;20.40;51.70;;;18.91;100.00;99768.19;5026852;28;20740;-63
2021/05/18 14:54:05;;;;;;;5.80;2.05;;;20.10;52.40;;;18.94;100.00;99781.25;5023693;28;20421;-62
2021/05/18 14:57:36;;;;;;;3.05;1.65;;;20.00;52.60;;;19.19;100.00;99781.19;5023896;28;20226;-62
2021/05/18 15:04:25;;;;;;;3.17;1.38;;;20.20;52.30;;;19.52;100.00;99787.09;5025154;28;20253;-63
2021/05/18 15:07:42;;;;;;;3.15;1.63;;;20.30;52.10;;;19.92;100.00;99775.66;5027034;28;20237;-62
2021/05/18 15:14:12;;;;;;;2.75;1.80;;;20.50;52.10;;;19.40;100.00;99782.63;5025740;28;21031;-63
2021/05/18 15:17:24;;;;;;;3.13;1.95;;;20.60;51.80;;;19.24;100.00;99789.50;5025915;28;20268;-63
2021/05/18 15:20:35;;;;;;;3.70;1.75;;;20.60;52.00;;;19.07;100.00;99791.97;5025682;28;20923;-62
2021/05/18 15:23:55;;;;;;;5.97;2.03;;;20.50;52.00;;;19.05;100.00;99788.66;5022916;28;20256;-62
2021/05/18 15:27:05;;;;;;;2.60;1.80;;;20.30;52.40;;;18.51;100.00;99787.50;5025440;28;21107;-62
2021/05/18 15:29:32;;;;;;;2.38;1.42;;;20.10;52.60;;;18.51;100.00;99790.19;5026090;28;21191;-61
2021/05/18 15:32:01;;;;;;;2.90;1.73;;;19.90;52.90;;;18.43;100.00;99787.75;5021830;28;20328;-62
2021/05/18 15:34:28;;;;;;;2.97;2.10;;;19.70;53.40;;;18.67;100.00;99783.41;5025782;28;20221;-62
2021/05/18 15:36:55;;;;;;;2.88;1.60;;;19.50;54.20;;;18.73;100.00;99777.09;5025685;28;20226;-61
2021/05/18 15:39:24;;;;;;;3.28;2.00;;;19.30;54.70;;;18.54;100.00;99778.09;5023565;28;20228;-61
2021/05/18 15:41:50;;;;;;;4.78;2.05;;;19.20;54.40;;;18.68;100.00;99787.75;5025263;28;20606;-61
2021/05/18 15:44:17;;;;;;;3.05;1.85;;;19.10;54.90;;;18.72;100.00;99778.16;5025317;28;20220;-62
2021/05/18 15:46:47;;;;;;;4.05;1.73;;;19.00;55.40;;;18.64;100.00;99787.41;5023266;28;20222;-62
2021/05/18 15:49:14;;;;;;;3.58;1.90;;;19.00;55.60;;;18.72;100.00;99782.75;5024613;28;20751;-61
2021/05/18 15:51:41;;;;;;;2.00;1.67;;;18.90;55.80;;;18.60;100.00;99791.59;5023163;28;20595;-62
2021/05/18 15:54:07;;;;;;;2.50;1.60;;;18.90;55.70;;;18.81;100.00;99784.94;5022507;28;20464;-63
2021/05/18 15:56:35;;;;;;;4.03;1.92;;;18.80;55.70;;;18.73;100.00;99781.69;5021225;28;20739;-61
2021/05/18 15:59:02;;;;;;;3.05;1.60;;;18.80;55.80;;;18.86;100.00;99782.38;5022232;28;20214;-62
2021/05/18 16:01:28;;;;;;;3.00;2.00;;;18.80;56.20;;;18.67;100.00;99780.69;5031342;28;20508;-63
2021/05/18 16:03:56;;;;;;;2.67;1.77;;;18.80;55.90;;;18.63;100.00;99788.47;5018622;28;20245;-62
2021/05/18 16:06:23;;;;;;;4.55;1.88;;;18.70;55.80;;;18.78;100.00;99784.56;5022652;28;20450;-61
2021/05/18 16:08:59;;;;;;;1.90;1.70;;;18.70;56.10;;;18.85;100.00;99780.72;5024025;28;20413;-64
2021/05/18 16:11:25;;;;;;;4.07;2.10;;;18.70;56.20;;;18.80;100.00;99782.44;5022950;28;20427;-63
2021/05/18 16:13:52;;;;;;;2.30;1.60;;;18.70;56.10;;;18.84;100.00;99787.19;5020631;28;20620;-63
2021/05/18 16:16:18;;;;;;;2.83;1.88;;;18.70;55.60;;;18.93;100.00;99793.97;5004882;28;20902;-63
2021/05/18 16:18:45;;;;;;;3.95;1.85;;;18.70;55.80;;;18.87;100.00;99789.47;5021490;28;20210;-64
2021/05/18 16:21:16;;;;;;;2.75;1.90;;;18.80;55.50;;;19.14;100.00;99795.44;5023806;28;20354;-64
2021/05/18 16:23:43;;;;;;;3.60;2.13;;;18.80;55.50;;;19.26;100.00;99793.66;5024264;28;20678;-62
2021/05/18 16:26:10;;;;;;;3.40;1.83;;;18.90;55.40;;;18.98;100.00;99798.75;5024142;28;20758;-63
2021/05/18 16:28:37;;;;;;;4.15;1.80;;;19.00;54.90;;;18.90;100.00;99804.47;5002792;28;20415;-63
2021/05/18 16:31:10;;;;;;;3.92;2.00;;;19.00;54.80;;;18.91;100.00;99804.25;5024246;28;20296;-64
2021/05/18 16:33:40;;;;;;;2.22;1.77;;;19.00;55.00;;;18.48;100.00;99808.75;5022491;28;20477;-63
2021/05/18 16:36:08;;;;;;;3.83;1.95;;;19.00;54.80;;;18.38;100.00;99803.84;5022730;28;20226;-63
2021/05/18 16:38:36;;;;;;;2.58;1.70;;;18.90;54.90;;;18.16;100.00;99806.09;5021773;28;20222;-63
2021/05/18 16:41:04;;;;;;;3.78;1.58;;;18.80;55.30;;;18.17;100.00;99818.59;5023373;28;20607;-63
2021/05/18 16:43:32;;;;;;;2.55;1.58;;;18.60;55.60;;;18.29;100.00;99813.31;5023024;28;20218;-62
2021/05/18 16:45:59;;;;;;;4.68;2.13;;;18.50;56.20;;;18.34;100.00;99813.47;5022265;28;20565;-62
2021/05/18 16:48:27;;;;;;;4.30;1.73;;;18.40;56.60;;;18.46;100.00;99808.97;5023432;28;20960;-62
2021/05/18 16:50:54;;;;;;;3.72;1.98;;;18.40;57.00;;;18.44;100.00;99811.09;5017781;28;20429;-63
2021/05/18 16:53:21;;;;;;;3.25;1.80;;;18.40;57.70;;;18.39;100.00;99810.94;5023100;28;21507;-63
2021/05/18 16:55:48;;;;;;;3.58;1.67;;;18.40;57.70;;;18.40;100.00;99820.72;5020973;28;20257;-63
2021/05/18 16:58:16;;;;;;;2.33;1.50;;;18.40;57.80;;;18.40;100.00;99819.88;5021801;28;20437;-63
2021/05/18 17:00:44;;;;;;;4.90;1.90;;;18.50;57.70;;;18.37;100.00;99821.16;5017255;28;20264;-63
2021/05/18 17:03:10;;;;;;;1.83;1.63;;;18.50;57.70;;;18.32;100.00;99818.25;5013448;28;21048;-63
2021/05/18 17:05:37;;;;;;;3.10;1.83;;;18.50;58.20;;;18.26;100.00;99828.09;5024388;28;20996;-63
2021/05/18 17:08:04;;;;;;;3.30;1.77;;;18.40;58.50;;;18.22;100.00;99831.47;5023527;28;20292;-63
2021/05/18 17:10:33;;;;;;;5.07;2.30;;;18.40;58.40;;;18.16;100.00;99833.19;5021094;28;20225;-62
2021/05/18 17:13:01;;;;;;;3.80;1.63;;;18.40;58.30;;;18.17;100.00;99836.72;5024156;28;20624;-63
2021/05/18 17:15:28;;;;;;;1.80;1.60;;;18.40;58.40;;;18.04;100.00;99832.22;5023643;28;20319;-63
2021/05/18 17:17:58;;;;;;;3.30;1.80;;;18.30;58.80;;;18.11;100.00;99835.69;5023715;28;20585;-63
2021/05/18 17:20:28;;;;;;;2.45;1.83;;;18.30;59.00;;;18.01;100.00;99834.53;5021366;28;20558;-64
2021/05/18 17:22:55;;;;;;;2.47;1.80;;;18.30;58.90;;;17.83;100.00;99837.94;5024086;28;20580;-62
2021/05/18 17:25:22;;;;;;;1.92;1.70;;;18.20;58.80;;;17.87;100.00;99839.16;5021820;28;20866;-63
2021/05/18 17:27:52;;;;;;;3.58;1.80;;;18.20;58.70;;;17.75;100.00;99841.72;5024250;28;20747;-64
2021/05/18 17:30:24;;;;;;;2.35;1.60;;;18.10;58.90;;;17.93;100.00;99841.81;5019450;28;20790;-64
2021/05/18 17:32:51;;;;;;;2.67;1.92;;;18.00;59.20;;;17.92;100.00;99840.19;5022938;28;20303;-63
2021/05/18 17:35:18;;;;;;;1.92;1.70;;;18.00;59.40;;;17.82;100.00;99847.94;5022967;28;20217;-63
2021/05/18 17:37:44;;;;;;;3.00;1.98;;;17.90;59.40;;;17.74;100.00;99853.59;5024360;28;20566;-63
2021/05/18 17:40:14;;;;;;;2.13;1.92;;;17.90;59.40;;;17.18;100.00;99854.16;5026511;28;20252;-63
2021/05/18 17:42:41;;;;;;;3.70;1.73;;;17.80;59.80;;;16.66;100.00;99857.75;5021788;28;20274;-62
2021/05/18 17:45:13;;;;;;;2.60;1.98;;;17.60;61.40;;;16.09;100.00;99861.81;5027584;28;20768;-63
2021/05/18 17:47:43;;;;;;;2.38;1.80;;;17.30;62.80;;;15.94;100.00;99866.56;5026211;28;20284;-62
2021/05/18 17:50:13;;;;;;;4.65;2.40;;;16.90;64.40;;;15.98;100.00;99862.41;5027782;28;20806;-62
2021/05/18 17:52:40;;;;;;;6.97;4.57;;;16.60;66.10;;;15.87;100.00;99870.25;5025899;28;20614;-63
2021/05/18 17:55:10;;;;;;;5.20;3.33;;;16.40;70.20;;;15.48;100.00;99870.88;5026216;28;20536;-62
2021/05/18 17:57:37;;;;;;;3.30;2.42;;;16.10;79.70;;;15.22;100.00;99867.00;5023042;28;20627;-62
2021/05/18 18:00:05;;;;;;;4.80;3.40;;;15.50;89.50;;;14.98;100.00;99876.38;5027236;28;20476;-62
2021/05/18 18:02:40;;;;;;;5.60;3.63;;;15.00;93.10;;;14.57;100.00;99883.53;5024019;28;20234;-61
2021/05/18 18:05:09;;;;;;;4.97;3.33;;;14.50;98.60;;;14.43;100.00;99885.28;5021808;28;20627;-61
2021/05/18 18:07:36;;;;;;;3.63;2.90;;;14.20;99.90;;;14.20;100.00;99890.81;5005475;28;20253;-61
2021/05/18 18:10:04;;;;;;;4.13;3.50;;;13.80;99.90;;;14.05;100.00;99897.25;5024816;28;20214;-62
2021/05/18 18:12:31;;;;;;;3.57;2.77;;;13.60;99.90;;;13.97;100.00;99900.91;5021267;28;20955;-62
2021/05/18 18:14:57;;;;;;;3.10;2.80;;;13.40;99.90;;;13.92;100.00;99909.53;5007479;28;20500;-62
2021/05/18 18:17:25;;;;;;;3.37;3.03;;;13.30;99.90;;;13.90;100.00;99905.34;5025626;28;20630;-62
2021/05/18 18:19:53;;;;;;;5.17;3.67;;;13.10;99.90;;;13.87;100.00;99909.25;5021295;28;20497;-63
2021/05/18 18:22:19;;;;;;;5.13;4.03;;;13.00;99.90;;;13.95;100.00;99906.47;5026098;28;20768;-62
2021/05/18 18:24:46;;;;;;;6.43;5.77;;;12.90;99.90;;;13.96;100.00;99915.38;5026629;28;20698;-62
2021/05/18 18:27:15;;;;;;;6.80;5.17;;;12.90;99.90;;;13.93;100.00;99913.06;5026228;28;20229;-62
2021/05/18 18:29:42;;;;;;;3.97;3.67;;;12.80;99.90;;;13.98;100.00;99921.38;5026531;28;20229;-62
2021/05/18 18:32:10;;;;;;;3.30;2.90;;;12.80;99.90;;;14.00;100.00;99922.03;5026059;28;20505;-62
2021/05/18 18:34:37;;;;;;;3.13;2.80;;;12.80;99.90;;;14.00;100.00;99914.78;5026476;28;20256;-63
2021/05/18 18:37:07;;;;;;;2.93;2.47;;;12.80;99.90;;;14.05;100.00;99914.22;5026845;28;20219;-62
2021/05/18 18:39:36;;;;;;;3.30;3.00;;;12.80;99.90;;;14.08;100.00;99924.63;5025743;28;20412;-62
2021/05/18 18:42:03;;;;;;;2.90;2.70;;;12.80;99.90;;;14.13;100.00;99924.88;5026787;28;20240;-62
2021/05/18 18:44:29;;;;;;;3.73;3.03;;;12.90;99.90;;;14.16;100.00;99927.19;5026035;28;21035;-61
2021/05/18 18:46:56;;;;;;;5.03;2.87;;;12.90;99.90;;;14.03;100.00;99924.34;5026156;28;20837;-61
2021/05/18 18:49:25;;;;;;;3.80;3.20;;;13.00;99.90;;;13.94;100.00;99925.47;5026690;28;20564;-62
2021/05/18 18:51:52;;;;;;;6.03;3.17;;;13.00;99.90;;;13.75;100.00;99926.03;5026344;28;20600;-62
2021/05/18 18:54:20;;;;;;;3.27;2.97;;;13.00;99.90;;;13.51;100.00;99922.63;5026545;28;20803;-62
2021/05/18 18:56:47;;;;;;;4.53;3.30;;;13.00;99.90;;;13.46;100.00;99927.75;5026663;28;20214;-62
2021/05/18 18:59:15;;;;;;;3.67;3.13;;;12.90;99.90;;;13.26;100.00;99938.19;5026002;28;20316;-62
2021/05/18 19:01:51;;;;;;;3.70;3.27;;;12.80;99.90;;;13.17;100.00;99942.00;5025750;28;20284;-62
2021/05/18 19:04:21;;;;;;;4.43;3.27;;;12.70;99.90;;;13.11;100.00;99945.38;5025639;28;20321;-62
2021/05/18 19:06:55;;;;;;;3.97;3.43;;;12.60;99.90;;;13.07;100.00;99954.81;5026423;28;20235;-60
2021/05/18 19:09:48;;;;;;;5.20;3.13;;;12.50;99.90;;;12.99;100.00;99954.88;5026377;28;20533;-60
2021/05/18 19:15:13;;;;;;;3.70;2.80;;;12.30;99.90;;;12.73;100.00;99970.56;4943573;28;20554;-60
2021/05/18 19:17:41;;;;;;;5.83;2.80;;;12.10;99.90;;;12.57;100.00;99969.66;4944122;28;20552;-60
2021/05/18 19:20:10;;;;;;;3.17;2.67;;;12.00;99.90;;;12.52;100.00;99976.56;4979357;28;20319;-57